Time;durP1;ratioP1;P1;durP2;ratioP2;P2;SDS_P1;SDS_P2;PMS_P1;PMS_P2;Temp;Humidity;BMP_temperature;BMP_pressure;BME280_temperature;BME280_humidity;BME280_pressure;Samples;Min_cycle;Max_cycle;Signal;HPM_P1;HPM_P2
2023/05/16 00:02:22;;;;;;;4.60;2.50;;;;;;;15.00;100.00;98674.74;109354;1252;282826;-68
2023/05/16 00:04:50;;;;;;;5.30;3.00;;;;;;;14.97;100.00;98673.30;109547;1253;74147;-69
2023/05/16 00:07:17;;;;;;;2.70;2.50;;;;;;;14.93;100.00;98671.72;109574;1251;69072;-69
2023/05/16 00:09:44;;;;;;;4.60;2.70;;;;;;;14.90;100.00;98670.92;109522;1252;73554;-68
2023/05/16 00:12:12;;;;;;;3.80;2.60;;;;;;;14.88;100.00;98661.00;109592;1251;60484;-69
2023/05/16 00:14:38;;;;;;;6.40;2.70;;;;;;;14.85;100.00;98658.34;109545;1252;61630;-70
2023/05/16 00:17:10;;;;;;;3.40;2.70;;;;;;;14.81;100.00;98664.27;109539;1254;76545;-69
2023/05/16 00:19:38;;;;;;;2.80;2.50;;;;;;;14.77;100.00;98660.13;109543;1252;68214;-70
2023/05/16 00:22:05;;;;;;;4.10;2.70;;;;;;;14.75;100.00;98655.66;109551;1252;73837;-69
2023/05/16 00:24:33;;;;;;;3.10;2.70;;;;;;;14.73;100.00;98651.02;109558;1253;63080;-69
2023/05/16 00:26:59;;;;;;;4.50;2.60;;;;;;;14.71;100.00;98650.52;109526;1251;61412;-68
2023/05/16 00:29:26;;;;;;;3.90;2.90;;;;;;;14.70;100.00;98649.71;109560;1253;75955;-69
2023/05/16 00:31:53;;;;;;;3.00;2.70;;;;;;;14.70;100.00;98657.09;109535;1253;68976;-69
2023/05/16 00:34:21;;;;;;;4.90;2.60;;;;;;;14.71;100.00;98656.01;109544;1251;74901;-68
2023/05/16 00:36:51;;;;;;;2.70;2.50;;;;;;;14.73;100.00;98653.27;109494;1253;63002;-69
2023/05/16 00:39:18;;;;;;;2.60;2.40;;;;;;;14.75;100.00;98648.41;109496;1252;61204;-68
2023/05/16 00:41:45;;;;;;;5.20;2.60;;;;;;;14.75;100.00;98647.52;109384;1252;76691;-69
2023/05/16 00:44:12;;;;;;;3.20;2.90;;;;;;;14.76;100.00;98654.04;109571;1251;69761;-69
2023/05/16 00:46:39;;;;;;;5.10;2.60;;;;;;;14.79;100.00;98660.11;109499;1252;73741;-70
2023/05/16 00:49:06;;;;;;;7.10;2.90;;;;;;;14.81;100.00;98660.46;109482;1253;62624;-71
2023/05/16 00:51:33;;;;;;;3.10;2.80;;;;;;;14.82;100.00;98648.44;109612;1251;62219;-71
2023/05/16 00:54:00;;;;;;;6.30;2.70;;;;;;;14.81;100.00;98645.03;109570;1252;76552;-71
2023/05/16 00:56:27;;;;;;;2.60;2.40;;;;;;;14.78;100.00;98642.86;109581;1253;69245;-71
2023/05/16 00:58:54;;;;;;;2.80;2.50;;;;;;;14.77;100.00;98640.40;109339;1253;71338;-71
2023/05/16 01:01:22;;;;;;;2.70;2.50;;;;;;;14.75;100.00;98643.46;109508;1252;60184;-70
2023/05/16 01:03:50;;;;;;;2.80;2.50;;;;;;;14.72;100.00;98640.55;109387;1252;61741;-70
2023/05/16 01:06:17;;;;;;;3.60;2.70;;;;;;;14.69;100.00;98634.57;109419;1252;73829;-71
2023/05/16 01:08:44;;;;;;;3.30;3.00;;;;;;;14.66;100.00;98632.70;109543;1253;69394;-69
2023/05/16 01:11:38;;;;;;;3.50;2.90;;;;;;;14.64;100.00;98638.10;109574;1253;71141;-71
2023/05/16 01:14:12;;;;;;;3.60;2.90;;;;;;;14.62;100.00;98643.45;109517;1253;62945;-69
2023/05/16 01:16:43;;;;;;;2.90;2.70;;;;;;;14.63;100.00;98637.09;109496;1252;62372;-71
2023/05/16 01:19:37;;;;;;;6.40;3.00;;;;;;;14.64;100.00;98639.96;109626;1251;74986;-71
2023/05/16 01:22:15;;;;;;;5.30;2.90;;;;;;;14.65;100.00;98638.50;109529;1252;69769;-70
2023/05/16 01:24:47;;;;;;;2.80;2.60;;;;;;;14.67;100.00;98640.06;109466;1252;72813;-69
2023/05/16 01:27:14;;;;;;;3.50;2.70;;;;;;;14.67;100.00;98642.70;109282;1253;60913;-71
2023/05/16 01:29:41;;;;;;;4.50;2.90;;;;;;;14.67;100.00;98643.93;109450;1252;61028;-71
2023/05/16 01:32:08;;;;;;;5.20;3.10;;;;;;;14.69;100.00;98642.85;109610;1253;73727;-70
2023/05/16 01:34:35;;;;;;;4.30;3.30;;;;;;;14.68;100.00;98646.14;109523;1251;70027;-70
2023/05/16 01:37:23;;;;;;;5.80;3.00;;;;;;;14.68;100.00;98649.32;109547;1251;72242;-70
2023/05/16 01:39:58;;;;;;;4.90;2.80;;;;;;;14.70;100.00;98651.90;109391;1252;60065;-70
2023/05/16 01:42:26;;;;;;;;;;;;;;;14.72;100.00;98652.23;109533;1252;59641;-71
2023/05/16 01:44:59;;;;;;;3.20;2.80;;;;;;;14.72;100.00;98651.15;109573;1252;76933;-69
2023/05/16 01:47:26;;;;;;;3.80;2.60;;;;;;;14.71;100.00;98649.88;109516;1253;67895;-69
2023/05/16 01:49:57;;;;;;;3.30;3.00;;;;;;;14.71;100.00;98653.95;109318;1252;74877;-69
2023/05/16 01:52:31;;;;;;;3.40;3.10;;;;;;;14.70;100.00;98662.33;109334;1253;62070;-69
2023/05/16 01:54:59;;;;;;;3.10;2.80;;;;;;;14.68;100.00;98667.89;109557;1252;61135;-70
2023/05/16 01:57:26;;;;;;;4.90;3.00;;;;;;;14.68;100.00;98672.53;109458;1251;76677;-70
2023/05/16 01:59:53;;;;;;;3.80;2.50;;;;;;;14.68;100.00;98673.28;109224;1251;70389;-71
2023/05/16 02:02:19;;;;;;;4.20;3.20;;;;;;;14.66;100.00;98677.17;109339;1253;74630;-69
2023/05/16 02:04:46;;;;;;;3.50;3.20;;;;;;;14.63;100.00;98675.26;109502;1253;59670;-69
2023/05/16 02:07:14;;;;;;;6.30;3.00;;;;;;;14.61;100.00;98675.36;109536;1253;59117;-70
2023/05/16 02:09:41;;;;;;;6.10;3.30;;;;;;;14.60;100.00;98676.83;109370;1253;76608;-71
2023/05/16 02:12:07;;;;;;;4.90;3.00;;;;;;;14.62;100.00;98675.88;109551;1253;69755;-72
2023/05/16 02:14:34;;;;;;;3.60;2.60;;;;;;;14.63;100.00;98673.24;109495;1252;74939;-70
2023/05/16 02:17:01;;;;;;;4.20;2.60;;;;;;;14.64;100.00;98673.32;109508;1252;62178;-71
2023/05/16 02:19:28;;;;;;;3.00;2.50;;;;;;;14.64;100.00;98671.75;109613;1252;59138;-69
2023/05/16 02:21:55;;;;;;;2.90;2.60;;;;;;;14.65;100.00;98667.83;109561;1252;75874;-69
2023/05/16 02:24:22;;;;;;;5.50;3.10;;;;;;;14.66;100.00;98670.91;109550;1252;68751;-70
2023/05/16 02:26:49;;;;;;;4.10;2.80;;;;;;;14.66;100.00;98664.11;109519;1252;73573;-70
2023/05/16 02:29:15;;;;;;;5.20;2.60;;;;;;;14.66;100.00;98664.65;109498;1252;62174;-70
2023/05/16 02:31:42;;;;;;;2.90;2.60;;;;;;;14.67;100.00;98662.34;109619;1252;62386;-68
2023/05/16 02:34:09;;;;;;;3.40;3.10;;;;;;;14.68;100.00;98664.63;109649;1252;76810;-70
2023/05/16 02:36:36;;;;;;;2.80;2.50;;;;;;;14.70;100.00;98676.20;109567;1252;69907;-70
2023/05/16 02:39:03;;;;;;;3.30;2.80;;;;;;;14.70;100.00;98680.15;109600;1252;72898;-69
2023/05/16 02:41:30;;;;;;;4.10;3.00;;;;;;;14.71;100.00;98681.08;109479;1256;60628;-69
2023/05/16 02:43:57;;;;;;;3.30;2.80;;;;;;;14.71;100.00;98683.31;109563;1252;60387;-69
2023/05/16 02:46:26;;;;;;;3.10;2.80;;;;;;;14.74;100.00;98681.45;109579;1252;73082;-69
2023/05/16 02:48:53;;;;;;;3.40;3.00;;;;;;;14.78;100.00;98682.16;109568;1253;68182;-70
2023/05/16 02:51:22;;;;;;;2.70;2.50;;;;;;;14.81;100.00;98682.21;109365;1252;74067;-70
2023/05/16 02:53:50;;;;;;;6.30;3.10;;;;;;;14.82;100.00;98686.38;109543;1253;61461;-68
2023/05/16 02:56:16;;;;;;;3.60;2.80;;;;;;;14.81;100.00;98683.22;109595;1252;62182;-69
2023/05/16 02:58:48;;;;;;;3.50;2.90;;;;;;;14.76;100.00;98681.92;109556;1253;75271;-70
2023/05/16 03:01:15;;;;;;;3.60;2.60;;;;;;;14.73;100.00;98688.84;109534;1251;68852;-68
2023/05/16 03:03:42;;;;;;;3.10;2.80;;;;;;;14.70;100.00;98690.28;109554;1253;71315;-70
2023/05/16 03:06:09;;;;;;;4.60;3.20;;;;;;;14.68;100.00;98694.81;109470;1253;64112;-71
2023/05/16 03:08:37;;;;;;;3.40;2.50;;;;;;;14.66;100.00;98694.59;109489;1253;61656;-68
2023/05/16 03:11:03;;;;;;;3.60;2.80;;;;;;;14.67;100.00;98698.22;109336;1252;76145;-68
2023/05/16 03:13:30;;;;;;;3.40;3.00;;;;;;;14.70;100.00;98697.73;109497;1252;69326;-69
2023/05/16 03:15:57;;;;;;;4.90;3.00;;;;;;;14.72;100.00;98701.55;109499;1252;72869;-69
2023/05/16 03:18:24;;;;;;;4.10;2.90;;;;;;;14.74;100.00;98701.41;109525;1252;63827;-69
2023/05/16 03:20:51;;;;;;;3.00;2.70;;;;;;;14.77;100.00;98694.08;109427;1253;58914;-71
2023/05/16 03:23:19;;;;;;;4.50;3.10;;;;;;;14.81;100.00;98689.80;109474;1253;76598;-69
2023/05/16 03:25:46;;;;;;;3.60;3.10;;;;;;;14.87;100.00;98695.98;109547;1252;68060;-70
2023/05/16 03:28:13;;;;;;;4.00;2.70;;;;;;;14.91;100.00;98700.32;109537;1252;72227;-69
2023/05/16 03:30:41;;;;;;;2.70;2.50;;;;;;;14.97;100.00;98702.96;109527;1251;60955;-69
2023/05/16 03:33:08;;;;;;;2.70;2.50;;;;;;;15.04;100.00;98707.28;109500;1253;62142;-70
2023/05/16 03:35:35;;;;;;;5.10;3.10;;;;;;;15.10;100.00;98712.26;109588;1252;73870;-70
2023/05/16 03:38:02;;;;;;;4.00;3.10;;;;;;;15.13;100.00;98713.64;109585;1252;68090;-70
2023/05/16 03:40:28;;;;;;;6.20;3.50;;;;;;;15.15;100.00;98713.21;109634;1253;74787;-71
2023/05/16 03:42:55;;;;;;;4.70;2.50;;;;;;;15.19;100.00;98712.60;109554;1252;63685;-71
2023/05/16 03:45:22;;;;;;;3.70;3.00;;;;;;;15.21;100.00;98711.14;109573;1253;61636;-70
2023/05/16 03:47:49;;;;;;;3.30;2.70;;;;;;;15.21;100.00;98715.80;109531;1251;75017;-70
2023/05/16 03:50:16;;;;;;;3.70;3.40;;;;;;;15.19;100.00;98716.64;109352;1252;68837;-69
2023/05/16 03:52:43;;;;;;;3.20;2.80;;;;;;;15.17;100.00;98719.34;109571;1253;74158;-70
2023/05/16 03:55:13;;;;;;;4.50;3.30;;;;;;;15.16;100.00;98718.27;109555;1253;60467;-71
2023/05/16 03:57:41;;;;;;;4.10;3.00;;;;;;;15.15;100.00;98715.73;109557;1251;60276;-71
2023/05/16 04:00:11;;;;;;;3.40;3.10;;;;;;;15.12;100.00;98712.54;109437;1253;74633;-70
2023/05/16 04:02:42;;;;;;;4.00;3.10;;;;;;;15.12;100.00;98716.13;109519;1252;69579;-71
2023/05/16 04:05:10;;;;;;;3.90;2.60;;;;;;;15.12;100.00;98708.79;109527;1252;73937;-69
2023/05/16 04:07:37;;;;;;;3.10;2.80;;;;;;;15.13;100.00;98710.26;109528;1253;62042;-68
2023/05/16 04:10:04;;;;;;;2.90;2.70;;;;;;;15.15;100.00;98708.27;109567;1253;62256;-71
2023/05/16 04:12:30;;;;;;;4.60;2.40;;;;;;;15.19;100.00;98707.20;109556;1253;77390;-68
2023/05/16 04:14:57;;;;;;;2.80;2.50;;;;;;;15.24;100.00;98705.02;109597;1251;68539;-70
2023/05/16 04:17:24;;;;;;;4.30;3.00;;;;;;;15.31;100.00;98704.10;109517;1251;74598;-69
2023/05/16 04:19:51;;;;;;;3.30;3.10;;;;;;;15.36;100.00;98705.46;109502;1252;60659;-70
2023/05/16 04:22:20;;;;;;;4.30;3.00;;;;;;;15.39;100.00;98708.57;109563;1251;61794;-71
2023/05/16 04:24:46;;;;;;;5.30;3.30;;;;;;;15.43;100.00;98711.42;109576;1253;74815;-71
2023/05/16 04:27:13;;;;;;;7.70;3.40;;;;;;;15.47;100.00;98714.13;109549;1251;69411;-71
2023/05/16 04:29:40;;;;;;;3.00;2.80;;;;;;;15.51;100.00;98713.85;109514;1252;73540;-71
2023/05/16 04:32:07;;;;;;;3.50;2.90;;;;;;;15.59;100.00;98712.54;109521;1252;60486;-71
2023/05/16 04:34:36;;;;;;;6.80;2.90;;;;;;;15.66;100.00;98712.73;109563;1252;60406;-70
2023/05/16 04:37:06;;;;;;;3.30;2.80;;;;;;;15.75;100.00;98713.00;109391;1252;76561;-70
2023/05/16 04:39:34;;;;;;;4.70;2.80;;;;;;;15.86;100.00;98705.86;109509;1253;67799;-72
2023/05/16 04:42:03;;;;;;;3.40;3.00;;;;;;;15.95;100.00;98707.80;109289;1253;72924;-75
2023/05/16 04:44:30;;;;;;;4.70;3.20;;;;;;;16.04;100.00;98711.38;109483;1253;63357;-72
2023/05/16 04:46:57;;;;;;;3.20;2.90;;;;;;;16.14;100.00;98717.65;109544;1251;61364;-71
2023/05/16 04:49:24;;;;;;;4.10;2.70;;;;;;;16.21;100.00;98722.08;109561;1252;74778;-70
2023/05/16 04:51:51;;;;;;;3.20;2.90;;;;;;;16.28;100.00;98723.80;109536;1253;67209;-69
2023/05/16 04:54:18;;;;;;;4.70;3.80;;;;;;;16.40;100.00;98726.61;109332;1256;74743;-68
2023/05/16 04:56:45;;;;;;;4.70;3.20;;;;;;;16.53;100.00;98724.37;109469;1252;61114;-68
2023/05/16 04:59:12;;;;;;;3.50;3.20;;;;;;;16.69;100.00;98728.48;109430;1253;62570;-70
2023/05/16 05:01:38;;;;;;;6.40;3.20;;;;;;;16.96;100.00;98728.02;109574;1253;75511;-68
2023/05/16 05:04:05;;;;;;;4.70;2.70;;;;;;;17.56;100.00;98723.73;109568;1253;69637;-65
2023/05/16 05:06:32;;;;;;;3.30;3.00;;;;;;;18.51;100.00;98724.54;109504;1252;72261;-67
2023/05/16 05:08:59;;;;;;;9.00;3.00;;;;;;;19.52;100.00;98721.28;109519;1253;61147;-69
2023/05/16 05:11:26;;;;;;;9.30;3.00;;;;;;;20.43;100.00;98715.73;109531;1253;61866;-67
2023/05/16 05:13:53;;;;;;;7.50;3.10;;;;;;;21.24;100.00;98709.70;109561;1253;75888;-70
2023/05/16 05:16:19;;;;;;;3.20;2.80;;;;;;;22.08;100.00;98706.91;109523;1253;70270;-69
2023/05/16 05:18:46;;;;;;;4.30;3.10;;;;;;;22.92;98.33;98708.45;109602;1253;74870;-68
2023/05/16 05:21:13;;;;;;;6.40;3.00;;;;;;;23.68;92.03;98701.52;109558;1253;61378;-69
2023/05/16 05:23:40;;;;;;;6.10;2.70;;;;;;;24.33;84.65;98696.72;109510;1252;62618;-65
2023/05/16 05:26:07;;;;;;;4.50;3.00;;;;;;;24.81;79.15;98692.04;109527;1252;76964;-69
2023/05/16 05:28:33;;;;;;;6.10;2.60;;;;;;;25.28;75.52;98692.13;109563;1253;69112;-73
2023/05/16 05:31:00;;;;;;;4.70;2.90;;;;;;;25.78;72.49;98693.12;109559;1252;74836;-69
2023/05/16 05:33:28;;;;;;;3.70;2.90;;;;;;;26.28;68.36;98690.69;109525;1253;61453;-69
2023/05/16 05:35:55;;;;;;;5.10;2.60;;;;;;;26.69;63.86;98690.02;109549;1253;61307;-69
2023/05/16 05:38:22;;;;;;;5.00;3.00;;;;;;;27.06;62.49;98687.25;109567;1253;76863;-68
2023/05/16 05:40:49;;;;;;;4.70;2.70;;;;;;;27.42;59.62;98687.25;109473;1253;68265;-69
2023/05/16 05:43:16;;;;;;;2.90;2.70;;;;;;;27.68;57.79;98685.17;109338;1253;71726;-69
2023/05/16 05:45:43;;;;;;;4.80;3.40;;;;;;;27.93;55.82;98690.73;109489;1251;60833;-69
2023/05/16 05:48:10;;;;;;;7.00;2.80;;;;;;;28.12;54.59;98688.70;109484;1253;62526;-68
2023/05/16 05:50:37;;;;;;;7.20;2.90;;;;;;;28.41;54.83;98694.24;109426;1253;76374;-67
2023/05/16 05:53:03;;;;;;;8.50;3.30;;;;;;;28.58;52.71;98695.61;109483;1252;70022;-70
2023/05/16 05:55:30;;;;;;;6.90;3.30;;;;;;;28.21;52.45;98696.47;109503;1252;74343;-69
2023/05/16 05:57:57;;;;;;;8.70;2.80;;;;;;;28.06;54.19;98706.02;109536;1253;61259;-69
2023/05/16 06:00:24;;;;;;;3.80;2.60;;;;;;;28.32;53.90;98709.84;109554;1254;60984;-69
2023/05/16 06:02:51;;;;;;;3.70;2.50;;;;;;;28.25;52.86;98707.54;109509;1253;75963;-68
2023/05/16 06:05:18;;;;;;;3.60;2.10;;;;;;;27.84;53.83;98706.21;109613;1253;67986;-68
2023/05/16 06:07:45;;;;;;;4.40;2.20;;;;;;;27.51;54.56;98707.05;109556;1252;73803;-68
2023/05/16 06:10:12;;;;;;;5.40;2.60;;;;;;;27.36;55.38;98706.73;109557;1253;59872;-67
2023/05/16 06:12:39;;;;;;;2.70;2.10;;;;;;;27.48;56.21;98700.70;109538;1254;62403;-71
2023/05/16 06:15:06;;;;;;;3.60;2.30;;;;;;;27.94;56.17;98690.83;109530;1253;74366;-71
2023/05/16 06:17:33;;;;;;;3.20;2.40;;;;;;;28.58;54.91;98689.20;109533;1252;71086;-70
2023/05/16 06:20:00;;;;;;;3.90;2.10;;;;;;;29.11;52.49;98689.73;109514;1253;73112;-70
2023/05/16 06:22:27;;;;;;;3.30;1.90;;;;;;;29.60;50.99;98699.54;109449;1254;59889;-69
2023/05/16 06:24:54;;;;;;;4.30;1.90;;;;;;;30.00;49.74;98692.78;109529;1254;61502;-71
2023/05/16 06:27:21;;;;;;;2.10;1.90;;;;;;;30.42;48.48;98694.89;109503;1253;76445;-70
2023/05/16 06:29:48;;;;;;;3.40;2.40;;;;;;;30.83;46.90;98699.84;109479;1252;68401;-72
2023/05/16 06:32:14;;;;;;;4.40;1.90;;;;;;;31.13;45.76;98704.54;109505;1252;73377;-64
2023/05/16 06:34:41;;;;;;;3.70;2.20;;;;;;;31.35;45.01;98704.41;109491;1253;59778;-64
2023/05/16 06:37:08;;;;;;;5.30;1.90;;;;;;;31.12;44.40;98709.16;109516;1253;62488;-66
2023/05/16 06:39:35;;;;;;;2.40;1.80;;;;;;;30.70;44.23;98711.31;109465;1256;76907;-67
2023/05/16 06:42:02;;;;;;;1.90;1.70;;;;;;;30.09;44.72;98709.52;109453;1254;66725;-66
2023/05/16 06:44:30;;;;;;;3.20;1.90;;;;;;;29.36;45.97;98716.59;109449;1254;75213;-68
2023/05/16 06:46:57;;;;;;;2.30;1.70;;;;;;;28.76;47.64;98719.17;109452;1254;59644;-68
2023/05/16 06:49:24;;;;;;;3.90;2.10;;;;;;;28.16;49.66;98725.57;109579;1252;62137;-65
2023/05/16 06:51:51;;;;;;;2.20;2.00;;;;;;;27.87;51.83;98738.56;109497;1254;75334;-67
2023/05/16 06:54:18;;;;;;;5.10;1.80;;;;;;;27.80;53.14;98744.54;109513;1253;66496;-68
2023/05/16 06:56:44;;;;;;;4.20;2.30;;;;;;;27.66;54.08;98744.63;109481;1253;74957;-70
2023/05/16 06:59:11;;;;;;;2.50;2.00;;;;;;;27.65;56.35;98747.36;109479;1256;60804;-67
2023/05/16 07:01:38;;;;;;;2.40;2.20;;;;;;;27.63;56.87;98748.86;109526;1253;61734;-67
2023/05/16 07:04:05;;;;;;;4.50;2.50;;;;;;;27.33;56.56;98757.14;109479;1252;75079;-67
2023/05/16 07:06:32;;;;;;;2.80;2.20;;;;;;;26.75;57.72;98764.14;109452;1254;69278;-65
2023/05/16 07:08:59;;;;;;;3.00;2.10;;;;;;;26.19;60.30;98764.49;109461;1253;71554;-67
2023/05/16 07:11:26;;;;;;;9.60;2.40;;;;;;;25.87;63.15;98766.70;109399;1254;59320;-66
2023/05/16 07:13:53;;;;;;;3.80;2.10;;;;;;;25.56;65.21;98771.52;109487;1252;60685;-67
2023/05/16 07:16:19;;;;;;;7.20;2.40;;;;;;;25.22;67.29;98776.86;109505;1252;73024;-67
2023/05/16 07:18:46;;;;;;;3.30;2.00;;;;;;;24.87;70.20;98778.90;109501;1253;70312;-67
2023/05/16 07:21:15;;;;;;;3.80;2.10;;;;;;;24.51;71.71;98783.74;109324;1256;73510;-67
2023/05/16 07:23:42;;;;;;;2.20;1.80;;;;;;;24.17;76.14;98787.60;109390;1254;60087;-68
2023/05/16 07:26:09;;;;;;;2.20;1.90;;;;;;;23.99;78.31;98790.31;109452;1253;59674;-68
2023/05/16 07:28:36;;;;;;;3.00;1.50;;;;;;;23.93;78.64;98795.95;109365;1254;76355;-67
2023/05/16 07:31:02;;;;;;;2.10;1.60;;;;;;;24.01;79.64;98796.06;109440;1253;70141;-65
2023/05/16 07:33:29;;;;;;;4.70;2.10;;;;;;;24.20;80.41;98791.65;109398;1254;74563;-69
2023/05/16 07:35:56;;;;;;;2.90;1.40;;;;;;;24.52;79.74;98786.85;109492;1253;60121;-67
2023/05/16 07:38:42;;;;;;;3.80;1.30;;;;;;;24.99;78.49;98787.23;109353;1253;60096;-69
2023/05/16 07:41:08;;;;;;;2.10;1.30;;;;;;;25.61;76.41;98787.44;109343;1253;74473;-68
2023/05/16 07:43:35;;;;;;;2.50;1.50;;;;;;;26.16;71.84;98785.23;109335;1253;70330;-70
2023/05/16 07:46:02;;;;;;;2.90;1.50;;;;;;;26.53;68.04;98788.90;109400;1254;73521;-67
2023/05/16 07:48:29;;;;;;;2.60;1.60;;;;;;;26.51;65.39;98785.70;109373;1253;59200;-70
2023/05/16 07:50:56;;;;;;;2.20;1.80;;;;;;;26.43;65.12;98786.83;109428;1254;61326;-64
2023/05/16 07:53:23;;;;;;;1.90;1.70;;;;;;;26.45;65.17;98791.17;109444;1256;74927;-66
2023/05/16 07:55:50;;;;;;;2.10;1.70;;;;;;;26.35;65.22;98793.61;109418;1254;67079;-66
2023/05/16 07:58:17;;;;;;;1.70;1.50;;;;;;;26.32;65.49;98800.80;109314;1254;72406;-69
2023/05/16 08:00:44;;;;;;;4.20;2.00;;;;;;;26.35;66.16;98800.83;109444;1251;60452;-66
2023/05/16 08:03:11;;;;;;;1.60;1.50;;;;;;;26.36;66.36;98804.90;109411;1251;60498;-67
2023/05/16 08:05:38;;;;;;;1.90;1.60;;;;;;;26.46;65.15;98805.16;109450;1253;76625;-66
2023/05/16 08:08:05;;;;;;;1.70;1.60;;;;;;;26.59;64.45;98804.87;109444;1252;69537;-67
2023/05/16 08:10:32;;;;;;;2.00;1.40;;;;;;;26.60;62.42;98802.02;109420;1253;75142;-65
2023/05/16 08:12:59;;;;;;;4.40;2.00;;;;;;;26.57;62.81;98807.72;109491;1253;60893;-67
2023/05/16 08:15:26;;;;;;;2.10;1.40;;;;;;;26.62;62.25;98806.26;109468;1252;62268;-66
2023/05/16 08:17:58;;;;;;;2.20;1.80;;;;;;;26.56;63.30;98804.41;109568;1252;75645;-68
2023/05/16 08:20:25;;;;;;;3.00;2.00;;;;;;;26.48;64.55;98805.52;109434;1252;69784;-69
2023/05/16 08:22:52;;;;;;;3.60;1.90;;;;;;;26.29;65.70;98804.64;109465;1254;74828;-69
2023/05/16 08:25:19;;;;;;;5.00;2.90;;;;;;;26.13;65.97;98809.31;109415;1252;61028;-69
2023/05/16 08:27:48;;;;;;;7.50;2.20;;;;;;;26.00;67.00;98815.19;109455;1254;59767;-69
2023/05/16 08:30:15;;;;;;;6.70;2.30;;;;;;;25.99;67.25;98816.95;109488;1253;73947;-68
2023/05/16 08:32:42;;;;;;;2.50;2.30;;;;;;;25.91;67.44;98814.99;109530;1253;70316;-68
2023/05/16 08:35:10;;;;;;;2.70;2.00;;;;;;;25.72;68.72;98821.90;109489;1253;74806;-68
2023/05/16 08:37:37;;;;;;;4.10;2.10;;;;;;;25.63;71.61;98819.26;109417;1253;59008;-66
2023/05/16 08:40:07;;;;;;;4.20;2.30;;;;;;;25.92;71.37;98818.70;109445;1252;60816;-68
2023/05/16 08:42:34;;;;;;;3.00;2.00;;;;;;;26.16;69.48;98820.09;109538;1252;76611;-70
2023/05/16 08:45:01;;;;;;;2.50;2.00;;;;;;;26.29;69.19;98818.21;109442;1253;68645;-68
2023/05/16 08:47:30;;;;;;;3.70;1.90;;;;;;;26.58;68.96;98813.12;109325;1252;73764;-68
2023/05/16 08:49:57;;;;;;;2.00;1.80;;;;;;;26.79;66.15;98816.27;109462;1252;59050;-67
2023/05/16 08:52:28;;;;;;;3.60;2.30;;;;;;;26.78;64.62;98824.41;109491;1253;61986;-69
2023/05/16 08:54:57;;;;;;;2.30;1.90;;;;;;;26.73;63.40;98823.75;109475;1253;75235;-68
2023/05/16 08:57:36;;;;;;;4.10;2.00;;;;;;;26.75;63.41;98826.45;109332;1254;68535;-67
2023/05/16 09:00:09;;;;;;;3.10;2.00;;;;;;;26.90;63.59;98830.65;109483;1254;72738;-67
2023/05/16 09:02:40;;;;;;;1.50;1.40;;;;;;;27.12;62.07;98832.67;109202;1252;60979;-67
2023/05/16 09:05:08;;;;;;;1.70;1.60;;;;;;;27.21;58.87;98825.08;109406;1253;62525;-69
2023/05/16 09:07:36;;;;;;;1.90;1.70;;;;;;;27.22;58.24;98815.71;109306;1253;76410;-68
2023/05/16 09:10:05;;;;;;;4.00;1.40;;;;;;;27.24;59.07;98819.08;109522;1252;67755;-68
2023/05/16 09:12:33;;;;;;;2.60;1.60;;;;;;;27.17;59.13;98822.40;109449;1254;73040;-67
2023/05/16 09:15:04;;;;;;;2.50;1.70;;;;;;;27.01;60.23;98825.39;109468;1253;59229;-68
2023/05/16 09:17:39;;;;;;;2.90;1.80;;;;;;;26.89;61.62;98828.98;109455;1253;61104;-69
2023/05/16 09:20:09;;;;;;;1.80;1.70;;;;;;;26.81;61.45;98826.17;109492;1251;75782;-68
2023/05/16 09:22:37;;;;;;;2.20;1.80;;;;;;;26.68;60.13;98824.45;109335;1252;70324;-68
2023/05/16 09:25:04;;;;;;;2.20;1.60;;;;;;;26.78;60.96;98825.55;109335;1253;72949;-67
2023/05/16 09:27:39;;;;;;;3.10;1.50;;;;;;;27.07;59.08;98830.56;109368;1253;61737;-67
2023/05/16 09:30:07;;;;;;;3.20;1.40;;;;;;;27.18;56.36;98829.42;109286;1252;59064;-68
2023/05/16 09:32:34;;;;;;;3.90;1.90;;;;;;;27.13;56.42;98824.95;109486;1251;75383;-67
2023/05/16 09:35:01;;;;;;;3.50;1.70;;;;;;;27.17;57.09;98829.44;109485;1252;69410;-67
2023/05/16 09:37:28;;;;;;;2.90;1.80;;;;;;;27.28;56.96;98827.38;109425;1253;74780;-68
2023/05/16 09:39:54;;;;;;;1.80;1.50;;;;;;;27.32;56.91;98823.01;109190;1253;61400;-65
2023/05/16 09:42:22;;;;;;;1.80;1.40;;;;;;;27.32;56.13;98820.42;109463;1253;60454;-68
2023/05/16 09:44:50;;;;;;;2.60;1.50;;;;;;;27.34;55.76;98822.54;109381;1252;76885;-67
2023/05/16 09:47:17;;;;;;;1.60;1.50;;;;;;;27.53;55.67;98826.70;109335;1253;68365;-67
2023/05/16 09:49:47;;;;;;;2.70;1.40;;;;;;;27.64;54.67;98831.20;109342;1253;74966;-66
2023/05/16 09:52:15;;;;;;;1.80;1.30;;;;;;;27.46;53.22;98829.83;109447;1253;62581;-65
2023/05/16 09:54:42;;;;;;;1.50;1.40;;;;;;;27.15;54.18;98830.23;109172;1253;60564;-65
2023/05/16 09:57:09;;;;;;;2.10;1.30;;;;;;;26.90;55.75;98829.95;109488;1252;76401;-68
2023/05/16 09:59:37;;;;;;;5.10;1.70;;;;;;;27.09;56.92;98828.34;109558;1252;69811;-68
2023/05/16 10:02:05;;;;;;;1.90;1.50;;;;;;;27.43;55.67;98833.78;109442;1253;71591;-66
2023/05/16 10:04:33;;;;;;;2.80;1.60;;;;;;;27.60;55.94;98837.81;109462;1252;60525;-66
2023/05/16 10:07:04;;;;;;;2.60;1.30;;;;;;;27.71;55.36;98833.98;109503;1252;62623;-67
2023/05/16 10:09:31;;;;;;;2.10;1.40;;;;;;;27.66;54.54;98834.27;109428;1252;76319;-67
2023/05/16 10:12:02;;;;;;;1.90;1.50;;;;;;;27.52;54.64;98832.73;109377;1252;68333;-66
2023/05/16 10:14:33;;;;;;;1.50;1.10;;;;;;;27.36;53.82;98833.45;109406;1253;75613;-66
2023/05/16 10:17:00;;;;;;;2.30;1.50;;;;;;;27.18;53.69;98833.73;109414;1253;63055;-66
2023/05/16 10:19:27;;;;;;;2.50;1.30;;;;;;;27.16;53.29;98832.84;109325;1252;59843;-67
2023/05/16 10:21:59;;;;;;;3.20;1.40;;;;;;;27.31;52.50;98829.36;109373;1253;75968;-67
2023/05/16 10:24:30;;;;;;;2.50;1.20;;;;;;;27.51;51.35;98826.54;109438;1251;69078;-68
2023/05/16 10:26:57;;;;;;;18.40;2.80;;;;;;;27.39;51.24;98823.30;109464;1252;72638;-67
2023/05/16 10:29:24;;;;;;;2.80;1.00;;;;;;;27.34;52.42;98823.91;109258;1254;61921;-66
2023/05/16 10:31:51;;;;;;;5.60;1.60;;;;;;;27.46;52.73;98829.16;109505;1253;62020;-67
2023/05/16 10:34:19;;;;;;;1.90;1.40;;;;;;;27.62;52.69;98827.52;109443;1252;74222;-67
2023/05/16 10:36:46;;;;;;;2.20;1.20;;;;;;;27.64;51.94;98827.42;109419;1252;71684;-66
2023/05/16 10:39:14;;;;;;;1.50;1.20;;;;;;;27.57;51.28;98833.55;109376;1252;71557;-67
2023/05/16 10:41:41;;;;;;;1.70;1.20;;;;;;;27.47;51.52;98834.52;109418;1252;60357;-65
2023/05/16 10:44:12;;;;;;;2.40;1.00;;;;;;;27.40;51.19;98836.89;109399;1253;62383;-67
2023/05/16 10:46:39;;;;;;;1.20;0.90;;;;;;;27.30;50.53;98841.65;109569;1252;76097;-66
2023/05/16 10:49:22;;;;;;;1.50;1.20;;;;;;;27.17;50.38;98845.23;109505;1252;69837;-66
2023/05/16 10:52:06;;;;;;;2.50;0.90;;;;;;;26.98;49.99;98843.92;109555;1252;72630;-67
2023/05/16 10:54:34;;;;;;;0.90;0.90;;;;;;;26.72;50.48;98839.59;109521;1252;61426;-67
2023/05/16 10:57:09;;;;;;;1.60;1.20;;;;;;;26.41;51.09;98837.30;109527;1252;60500;-65
2023/05/16 10:59:46;;;;;;;1.90;1.00;;;;;;;26.09;52.38;98841.67;109502;1252;74981;-65
2023/05/16 11:02:40;;;;;;;2.10;0.90;;;;;;;25.79;53.84;98846.10;109454;1252;66733;-66
2023/05/16 11:05:08;;;;;;;1.00;1.00;;;;;;;25.69;55.27;98844.15;109462;1253;73219;-67
2023/05/16 11:07:38;;;;;;;1.30;1.20;;;;;;;25.56;56.23;98843.91;109326;1252;62576;-69
2023/05/16 11:10:05;;;;;;;1.10;1.00;;;;;;;25.37;57.05;98841.88;109566;1252;61054;-69
2023/05/16 11:12:36;;;;;;;1.90;0.90;;;;;;;25.24;58.01;98839.13;109462;1252;76079;-69
2023/05/16 11:15:16;;;;;;;1.30;0.80;;;;;;;25.16;59.02;98833.93;109586;1252;69502;-69
2023/05/16 11:17:43;;;;;;;2.40;1.40;;;;;;;25.15;60.76;98828.60;109498;1252;73767;-69
2023/05/16 11:20:24;;;;;;;3.30;1.50;;;;;;;25.25;61.59;98832.92;109489;1254;59444;-70
2023/05/16 11:23:00;;;;;;;1.50;1.10;;;;;;;25.36;62.00;98834.98;109489;1252;60764;-69
2023/05/16 11:25:34;;;;;;;2.30;1.30;;;;;;;25.36;60.62;98836.77;109294;1251;76486;-69
2023/05/16 11:28:01;;;;;;;1.20;1.10;;;;;;;25.35;60.04;98838.47;109240;1253;69029;-69